createdAt,value
2022-11-18T00:00:56.550Z,7.60
2022-11-18T00:03:23.681Z,7.60
2022-11-18T00:06:00.687Z,7.70
2022-11-18T00:08:27.334Z,7.70
2022-11-18T00:10:54.037Z,7.80
2022-11-18T00:13:39.423Z,7.90
2022-11-18T00:16:10.338Z,7.80
2022-11-18T00:18:37.833Z,7.80
2022-11-18T00:21:09.962Z,7.70
2022-11-18T00:23:37.793Z,7.60
2022-11-18T00:26:06.677Z,7.60
2022-11-18T00:28:34.111Z,7.70
2022-11-18T00:31:10.013Z,7.70
2022-11-18T00:33:37.042Z,7.70
2022-11-18T00:36:05.728Z,7.70
2022-11-18T00:38:32.508Z,7.80
2022-11-18T00:41:04.382Z,7.70
2022-11-18T00:43:31.443Z,7.70
2022-11-18T00:46:00.156Z,7.60
2022-11-18T00:48:26.894Z,7.60
2022-11-18T00:50:56.138Z,7.60
2022-11-18T00:53:24.885Z,7.40
2022-11-18T00:55:51.645Z,7.50
2022-11-18T00:58:19.207Z,7.60
2022-11-18T01:00:50.078Z,7.50
2022-11-18T01:03:17.041Z,7.50
2022-11-18T01:05:43.774Z,7.50
2022-11-18T01:08:11.889Z,7.40
2022-11-18T01:10:40.099Z,7.40
2022-11-18T01:13:20.322Z,7.40
2022-11-18T01:15:54.913Z,7.30
2022-11-18T01:18:27.225Z,7.30
2022-11-18T01:20:53.886Z,7.30
2022-11-18T01:23:21.067Z,7.20
2022-11-18T01:25:49.331Z,7.20
2022-11-18T01:28:23.170Z,7.20
2022-11-18T01:30:50.552Z,7.10
2022-11-18T01:33:17.173Z,7.20
2022-11-18T01:35:44.670Z,7.20
2022-11-18T01:38:13.714Z,7.30
2022-11-18T01:40:40.941Z,7.20
2022-11-18T01:43:19.633Z,7.30
2022-11-18T01:45:48.450Z,7.20
2022-11-18T01:48:21.194Z,7.30
2022-11-18T01:51:10.169Z,7.30
2022-11-18T01:54:02.333Z,7.30
2022-11-18T01:56:37.121Z,7.30
2022-11-18T01:59:08.957Z,7.20
2022-11-18T02:01:35.918Z,7.20
2022-11-18T02:04:27.852Z,7.30
2022-11-18T02:06:55.133Z,7.30
2022-11-18T02:09:22.482Z,7.40
2022-11-18T02:11:51.900Z,7.30
2022-11-18T02:14:22.971Z,7.40
2022-11-18T02:17:08.105Z,7.30
2022-11-18T02:19:46.971Z,7.30
2022-11-18T02:22:52.883Z,7.30
2022-11-18T02:25:42.715Z,7.40
2022-11-18T02:28:15.201Z,7.40
2022-11-18T02:30:55.124Z,7.50
2022-11-18T02:33:47.545Z,7.50
2022-11-18T02:36:17.011Z,7.40
2022-11-18T02:38:48.288Z,7.50
2022-11-18T02:41:23.543Z,7.50
2022-11-18T02:43:55.569Z,7.60
2022-11-18T02:46:30.205Z,7.50
2022-11-18T02:48:57.380Z,7.40
2022-11-18T02:51:28.277Z,7.30
2022-11-18T02:53:59.074Z,7.40
2022-11-18T02:56:27.212Z,7.40
2022-11-18T02:58:53.868Z,7.40
2022-11-18T03:01:25.119Z,7.40
2022-11-18T03:03:51.787Z,7.30
2022-11-18T03:06:27.322Z,7.30
2022-11-18T03:09:11.533Z,7.30
2022-11-18T03:12:02.315Z,7.30
2022-11-18T03:14:51.764Z,7.30
2022-11-18T03:17:37.228Z,7.30
2022-11-18T03:20:09.689Z,7.30
2022-11-18T03:22:43.995Z,7.30
2022-11-18T03:25:28.753Z,7.30
2022-11-18T03:28:09.159Z,7.30
2022-11-18T03:30:39.333Z,7.20
2022-11-18T03:33:10.960Z,7.30
2022-11-18T03:35:41.623Z,7.40
2022-11-18T03:38:15.625Z,7.40
2022-11-18T03:40:48.507Z,7.30
2022-11-18T03:43:21.495Z,7.30
2022-11-18T03:45:59.820Z,7.40
2022-11-18T03:48:31.683Z,7.40
2022-11-18T03:51:08.273Z,7.40
2022-11-18T03:53:39.470Z,7.40
2022-11-18T03:56:19.467Z,7.50
2022-11-18T03:58:53.024Z,7.50
2022-11-18T04:01:42.830Z,7.40
2022-11-18T04:04:10.168Z,7.40
2022-11-18T04:06:47.431Z,7.40
2022-11-18T04:09:23.713Z,7.40
2022-11-18T04:12:05.738Z,7.30
2022-11-18T04:14:38.096Z,7.40
2022-11-18T04:17:17.873Z,7.50
2022-11-18T04:19:44.565Z,7.40
2022-11-18T04:22:12.285Z,7.30
2022-11-18T04:24:39.258Z,7.40
2022-11-18T04:27:13.476Z,7.50
2022-11-18T04:29:40.082Z,7.40
2022-11-18T04:32:06.870Z,7.40
2022-11-18T04:34:33.514Z,7.40
2022-11-18T04:37:00.137Z,7.40
2022-11-18T04:39:26.725Z,7.40
2022-11-18T04:41:56.012Z,7.40
2022-11-18T04:44:31.072Z,7.40
2022-11-18T04:46:58.578Z,7.40
2022-11-18T04:49:26.070Z,7.50
2022-11-18T04:51:52.959Z,7.40
2022-11-18T04:54:20.543Z,7.50
2022-11-18T04:56:49.666Z,7.50
2022-11-18T04:59:20.691Z,7.50
2022-11-18T05:01:48.673Z,7.30
2022-11-18T05:04:17.865Z,7.30
2022-11-18T05:06:44.916Z,7.50
2022-11-18T05:09:11.603Z,7.60
2022-11-18T05:11:56.804Z,7.60
2022-11-18T05:14:27.218Z,7.60
2022-11-18T05:16:55.037Z,7.60
2022-11-18T05:19:21.708Z,7.70
2022-11-18T05:21:48.422Z,7.60
2022-11-18T05:24:15.680Z,7.60
2022-11-18T05:26:42.505Z,7.50
2022-11-18T05:29:12.869Z,7.40
2022-11-18T05:31:39.478Z,7.40
2022-11-18T05:34:07.543Z,7.50
2022-11-18T05:36:34.165Z,7.40
2022-11-18T05:39:00.787Z,7.40
2022-11-18T05:41:45.831Z,7.30
2022-11-18T05:44:12.524Z,7.30
2022-11-18T05:46:39.202Z,7.40
2022-11-18T05:49:05.914Z,7.40
2022-11-18T05:51:32.661Z,7.40
2022-11-18T05:54:00.097Z,7.40
2022-11-18T05:56:36.792Z,7.40
2022-11-18T05:59:04.143Z,7.40
2022-11-18T06:01:33.394Z,7.50
2022-11-18T06:04:03.162Z,7.40
2022-11-18T06:06:29.925Z,7.40
2022-11-18T06:09:08.697Z,7.30
2022-11-18T06:11:43.754Z,7.20
2022-11-18T06:14:16.455Z,7.20
2022-11-18T06:16:49.073Z,7.10
2022-11-18T06:19:17.065Z,7.10
2022-11-18T06:21:45.280Z,7.10
2022-11-18T06:24:13.462Z,7.00
2022-11-18T06:26:40.923Z,7.00
2022-11-18T06:29:11.178Z,7.00
2022-11-18T06:31:37.800Z,7.10
2022-11-18T06:34:04.411Z,7.10
2022-11-18T06:36:31.042Z,7.20
2022-11-18T06:39:05.262Z,7.20
2022-11-18T06:41:32.330Z,7.30
2022-11-18T06:43:59.083Z,7.30
2022-11-18T06:46:44.581Z,7.40
2022-11-18T06:49:11.906Z,7.50
2022-11-18T06:51:39.069Z,7.40
2022-11-18T06:54:10.703Z,7.40
2022-11-18T06:56:39.062Z,7.40
2022-11-18T06:59:05.730Z,7.30
2022-11-18T07:01:36.032Z,7.40
2022-11-18T07:04:03.043Z,7.60
2022-11-18T07:06:32.869Z,7.60
2022-11-18T07:09:01.376Z,7.60
2022-11-18T07:11:28.405Z,7.50
2022-11-18T07:13:55.227Z,7.50
2022-11-18T07:16:24.175Z,7.40
2022-11-18T07:18:51.890Z,7.50
2022-11-18T07:21:20.793Z,7.50
2022-11-18T07:23:47.837Z,7.50
2022-11-18T07:26:15.277Z,7.60
2022-11-18T07:28:42.538Z,7.60
2022-11-18T07:31:10.710Z,7.50
2022-11-18T07:33:38.450Z,7.70
2022-11-18T07:36:32.324Z,7.60
2022-11-18T07:39:04.760Z,7.60
2022-11-18T07:41:31.504Z,7.70
2022-11-18T07:44:00.988Z,7.70
2022-11-18T07:46:34.155Z,7.80
2022-11-18T07:49:03.625Z,7.80
2022-11-18T07:51:35.666Z,7.70
2022-11-18T07:54:16.905Z,7.70
2022-11-18T07:56:43.794Z,7.70
2022-11-18T07:59:10.389Z,7.60
2022-11-18T08:01:37.055Z,7.60
2022-11-18T08:04:09.894Z,7.60
2022-11-18T08:06:36.819Z,7.60
2022-11-18T08:09:05.075Z,7.70
2022-11-18T08:11:32.368Z,7.70
2022-11-18T08:13:59.070Z,7.80
2022-11-18T08:16:26.417Z,7.70
2022-11-18T08:18:53.434Z,7.70
2022-11-18T08:21:22.046Z,7.70
2022-11-18T08:23:53.668Z,7.60
2022-11-18T08:26:21.252Z,7.60
2022-11-18T08:28:48.553Z,7.70
2022-11-18T08:31:26.864Z,7.70
2022-11-18T08:34:03.527Z,7.80
2022-11-18T08:36:32.409Z,7.80
2022-11-18T08:39:01.161Z,7.90
2022-11-18T08:41:36.660Z,7.90
2022-11-18T08:44:05.204Z,7.80
2022-11-18T08:46:32.472Z,7.90
2022-11-18T08:48:59.668Z,7.90
2022-11-18T08:51:26.660Z,7.80
2022-11-18T08:53:53.499Z,7.70
2022-11-18T08:56:21.609Z,7.70
2022-11-18T08:58:48.231Z,7.70
2022-11-18T09:01:15.027Z,7.80
2022-11-18T09:03:42.081Z,7.70
2022-11-18T09:06:17.841Z,7.70
2022-11-18T09:08:45.276Z,7.70
2022-11-18T09:11:21.110Z,7.60
2022-11-18T09:16:38.063Z,7.70
2022-11-18T09:19:24.856Z,7.70
2022-11-18T09:21:51.306Z,7.70
2022-11-18T09:24:18.320Z,7.60
2022-11-18T09:26:45.425Z,7.60
2022-11-18T09:29:12.646Z,7.60
2022-11-18T09:31:39.347Z,7.70
2022-11-18T09:34:08.570Z,7.70
2022-11-18T09:36:35.286Z,7.70
2022-11-18T09:39:01.921Z,7.70
2022-11-18T09:41:52.093Z,7.80
2022-11-18T09:44:50.985Z,7.80
2022-11-18T09:47:32.472Z,8.00
2022-11-18T09:53:41.186Z,7.80
2022-11-18T09:56:16.514Z,7.90
2022-11-18T09:58:44.932Z,7.90
2022-11-18T10:01:19.713Z,8.00
2022-11-18T10:03:46.861Z,8.00
2022-11-18T10:06:25.076Z,7.90
2022-11-18T10:09:31.502Z,7.90
2022-11-18T10:12:14.273Z,7.80
2022-11-18T10:15:09.416Z,7.80
2022-11-18T10:17:50.527Z,7.80
2022-11-18T10:20:22.582Z,7.70
2022-11-18T10:23:07.752Z,7.70
2022-11-18T10:25:34.394Z,7.70
2022-11-18T10:28:20.374Z,7.60
2022-11-18T10:30:47.726Z,7.60
2022-11-18T10:33:23.004Z,7.60
2022-11-18T10:35:51.033Z,7.60
2022-11-18T10:38:23.408Z,7.60
2022-11-18T10:40:49.957Z,7.60
2022-11-18T10:43:49.359Z,7.50
2022-11-18T10:46:33.617Z,7.50
2022-11-18T10:49:09.205Z,7.60
2022-11-18T10:51:37.790Z,7.60
2022-11-18T10:54:22.389Z,7.70
2022-11-18T10:57:16.690Z,7.70
2022-11-18T10:59:51.029Z,7.80
2022-11-18T11:02:24.135Z,7.70
2022-11-18T11:04:52.194Z,7.70
2022-11-18T11:07:33.886Z,7.60
2022-11-18T11:10:06.926Z,7.70
2022-11-18T11:12:47.601Z,7.80
2022-11-18T11:15:19.125Z,7.80
2022-11-18T11:18:12.165Z,7.80
2022-11-18T11:20:38.983Z,7.70
2022-11-18T11:23:22.030Z,7.80
2022-11-18T11:29:15.380Z,7.60
2022-11-18T11:31:44.886Z,7.60
2022-11-18T11:34:17.736Z,7.60
2022-11-18T11:36:44.332Z,7.50
2022-11-18T11:39:40.458Z,7.20
2022-11-18T11:42:38.621Z,7.00
2022-11-18T11:45:18.281Z,6.90
2022-11-18T11:48:00.401Z,7.00
2022-11-18T11:51:03.470Z,6.90
2022-11-18T11:54:20.283Z,6.80
2022-11-18T11:56:52.407Z,6.70
2022-11-18T11:59:38.191Z,6.80
2022-11-18T12:02:26.629Z,6.80
2022-11-18T12:05:28.621Z,6.80
2022-11-18T12:07:59.389Z,6.70
2022-11-18T12:10:47.232Z,6.70
2022-11-18T12:13:20.929Z,6.60
2022-11-18T12:16:03.848Z,6.60
2022-11-18T12:18:35.045Z,6.70
2022-11-18T12:21:01.717Z,6.60
2022-11-18T12:23:32.912Z,6.70
2022-11-18T12:26:02.399Z,6.50
2022-11-18T12:28:34.152Z,6.20
2022-11-18T12:31:15.975Z,6.10
2022-11-18T12:33:44.253Z,6.10
2022-11-18T12:36:24.423Z,6.00
2022-11-18T12:38:52.388Z,6.00
2022-11-18T12:41:59.779Z,6.10
2022-11-18T12:44:28.786Z,6.20
2022-11-18T12:46:57.202Z,6.20
2022-11-18T12:49:24.191Z,6.30
2022-11-18T12:51:54.882Z,6.20
2022-11-18T12:54:40.058Z,5.90
2022-11-18T12:57:19.472Z,5.80
2022-11-18T12:59:46.364Z,5.70
2022-11-18T13:02:12.927Z,5.70
2022-11-18T13:04:44.948Z,5.70
2022-11-18T13:07:36.638Z,5.70
2022-11-18T13:10:22.497Z,5.70
2022-11-18T13:12:49.337Z,5.60
2022-11-18T13:15:34.667Z,5.60
2022-11-18T13:18:11.469Z,5.60
2022-11-18T13:20:40.034Z,5.60
2022-11-18T13:23:28.058Z,5.50
2022-11-18T13:26:12.126Z,5.40
2022-11-18T13:29:03.454Z,5.40
2022-11-18T13:31:45.049Z,5.30
2022-11-18T13:34:25.449Z,5.30
2022-11-18T13:36:53.859Z,5.10
2022-11-18T13:39:29.889Z,5.20
2022-11-18T13:42:02.727Z,5.10
2022-11-18T13:44:34.713Z,5.10
2022-11-18T13:47:05.690Z,5.10
2022-11-18T13:49:43.991Z,5.00
2022-11-18T13:52:23.498Z,5.00
2022-11-18T13:54:52.767Z,5.00
2022-11-18T13:57:22.421Z,5.10
2022-11-18T13:59:50.096Z,5.20
2022-11-18T14:02:17.498Z,5.20
2022-11-18T14:04:54.432Z,5.20
2022-11-18T14:07:31.879Z,5.20
2022-11-18T14:10:14.548Z,5.10
2022-11-18T14:12:41.279Z,5.10
2022-11-18T14:15:22.688Z,5.20
2022-11-18T14:17:52.742Z,5.00
2022-11-18T14:20:19.814Z,4.90
2022-11-18T14:22:50.822Z,4.80
2022-11-18T14:25:43.898Z,4.70
2022-11-18T14:28:13.864Z,4.60
2022-11-18T14:30:45.753Z,4.50
2022-11-18T14:33:20.537Z,4.60
2022-11-18T14:35:55.265Z,4.60
2022-11-18T14:38:44.077Z,4.50
2022-11-18T14:41:43.909Z,4.40
2022-11-18T14:44:13.211Z,4.30
2022-11-18T14:46:41.359Z,4.20
2022-11-18T14:49:13.805Z,4.20
2022-11-18T14:51:40.535Z,4.30
2022-11-18T14:54:07.144Z,4.30
2022-11-18T14:56:34.777Z,4.20
2022-11-18T14:59:01.431Z,4.20
2022-11-18T15:01:30.968Z,4.20
2022-11-18T15:03:57.905Z,4.10
2022-11-18T15:06:24.797Z,4.10
2022-11-18T15:08:53.051Z,3.90
2022-11-18T15:11:19.829Z,3.80
2022-11-18T15:13:47.330Z,3.80
2022-11-18T15:16:21.079Z,3.70
2022-11-18T15:18:50.178Z,3.70
2022-11-18T15:21:17.178Z,3.60
2022-11-18T15:23:43.948Z,3.50
2022-11-18T15:26:17.778Z,3.50
2022-11-18T15:28:45.134Z,3.60
2022-11-18T15:31:12.097Z,3.60
2022-11-18T15:33:38.855Z,3.60
2022-11-18T15:36:11.646Z,3.50
2022-11-18T15:38:38.225Z,3.40
2022-11-18T15:41:04.998Z,3.30
2022-11-18T15:43:32.059Z,3.30
2022-11-18T15:45:59.165Z,3.20
2022-11-18T15:48:25.785Z,3.30
2022-11-18T15:50:54.375Z,3.20
2022-11-18T15:53:21.130Z,3.20
2022-11-18T15:55:47.817Z,3.20
2022-11-18T15:58:17.279Z,3.30
2022-11-18T16:00:45.235Z,3.20
2022-11-18T16:03:12.083Z,3.10
2022-11-18T16:05:38.698Z,3.10
2022-11-18T16:08:05.470Z,3.10
2022-11-18T16:10:51.300Z,3.10
2022-11-18T16:13:21.510Z,3.00
2022-11-18T16:15:48.205Z,3.10
2022-11-18T16:18:17.726Z,3.00
2022-11-18T16:20:44.537Z,3.10
2022-11-18T16:23:11.209Z,3.10
2022-11-18T16:25:43.965Z,3.10
2022-11-18T16:28:10.678Z,3.10
2022-11-18T16:30:56.087Z,3.00
2022-11-18T16:33:22.712Z,2.90
2022-11-18T16:35:49.701Z,2.80
2022-11-18T16:38:16.346Z,2.80
2022-11-18T16:40:43.022Z,2.70
2022-11-18T16:43:09.630Z,2.70
2022-11-18T16:45:36.242Z,2.50
2022-11-18T16:48:02.952Z,2.60
2022-11-18T16:50:29.589Z,2.50
2022-11-18T16:52:56.876Z,2.50
2022-11-18T16:55:23.482Z,2.40
2022-11-18T16:57:50.249Z,2.50
2022-11-18T17:00:17.641Z,2.50
2022-11-18T17:02:44.319Z,2.40
2022-11-18T17:05:13.358Z,2.40
2022-11-18T17:07:40.004Z,2.50
2022-11-18T17:10:19.425Z,2.40
2022-11-18T17:12:47.137Z,2.30
2022-11-18T17:15:14.848Z,2.30
2022-11-18T17:17:41.452Z,2.40
2022-11-18T17:20:08.589Z,2.40
2022-11-18T17:22:35.253Z,2.30
2022-11-18T17:25:05.282Z,2.30
2022-11-18T17:27:32.252Z,2.10
2022-11-18T17:29:59.007Z,2.00
2022-11-18T17:32:25.636Z,1.80
2022-11-18T17:34:52.263Z,1.80
2022-11-18T17:37:18.845Z,1.80
2022-11-18T17:39:45.430Z,1.70
2022-11-18T17:42:14.793Z,1.70
2022-11-18T17:44:41.399Z,1.60
2022-11-18T17:47:07.975Z,1.60
2022-11-18T17:49:34.605Z,1.60
2022-11-18T17:52:01.325Z,1.60
2022-11-18T17:54:28.020Z,1.50
2022-11-18T17:56:54.592Z,1.50
2022-11-18T17:59:22.803Z,1.40
2022-11-18T18:01:54.386Z,1.40
2022-11-18T18:04:24.161Z,1.40
2022-11-18T18:06:52.671Z,1.30
2022-11-18T18:09:26.984Z,1.30
2022-11-18T18:11:57.001Z,1.20
2022-11-18T18:14:23.574Z,1.20
2022-11-18T18:16:50.898Z,1.20
2022-11-18T18:19:22.370Z,1.20
2022-11-18T18:21:49.869Z,1.20
2022-11-18T18:24:19.250Z,1.20
2022-11-18T18:26:46.489Z,1.10
2022-11-18T18:29:16.046Z,1.10
2022-11-18T18:31:42.679Z,1.10
2022-11-18T18:34:09.497Z,1.10
2022-11-18T18:36:38.266Z,1.10
2022-11-18T18:39:04.951Z,1.10
2022-11-18T18:41:32.458Z,1.00
2022-11-18T18:44:00.462Z,1.00
2022-11-18T18:46:33.504Z,1.00
2022-11-18T18:49:03.170Z,1.00
2022-11-18T18:51:34.571Z,0.90
2022-11-18T18:54:01.303Z,0.90
2022-11-18T18:56:27.954Z,0.90
2022-11-18T18:58:56.581Z,0.90
2022-11-18T19:01:23.890Z,0.90
2022-11-18T19:04:01.286Z,0.90
2022-11-18T19:09:23.154Z,0.80
2022-11-18T19:12:08.945Z,0.80
2022-11-18T19:14:35.576Z,0.80
2022-11-18T19:17:09.173Z,0.80
2022-11-18T19:19:55.158Z,0.70
2022-11-18T19:22:21.961Z,0.70
2022-11-18T19:24:50.238Z,0.70
2022-11-18T19:27:18.818Z,0.70
2022-11-18T19:29:45.565Z,0.60
2022-11-18T19:32:14.437Z,0.50
2022-11-18T19:34:41.091Z,0.50
2022-11-18T19:37:07.723Z,0.50
2022-11-18T19:39:35.222Z,0.60
2022-11-18T19:42:01.955Z,0.60
2022-11-18T19:44:28.667Z,0.60
2022-11-18T19:46:55.288Z,0.50
2022-11-18T19:49:22.648Z,0.50
2022-11-18T19:51:49.563Z,0.50
2022-11-18T19:54:18.919Z,0.50
2022-11-18T19:56:45.522Z,0.50
2022-11-18T19:59:12.681Z,0.50
2022-11-18T20:01:40.240Z,0.50
2022-11-18T20:04:07.170Z,0.50
2022-11-18T20:06:35.711Z,0.50
2022-11-18T20:09:03.361Z,0.50
2022-11-18T20:11:30.042Z,0.40
2022-11-18T20:13:56.658Z,0.40
2022-11-18T20:16:24.904Z,0.30
2022-11-18T20:19:05.009Z,0.30
2022-11-18T20:21:34.809Z,0.30
2022-11-18T20:24:03.703Z,0.30
2022-11-18T20:26:43.307Z,0.30
2022-11-18T20:29:10.408Z,0.20
2022-11-18T20:31:37.484Z,0.20
2022-11-18T20:34:04.641Z,0.30
2022-11-18T20:36:33.895Z,0.30
2022-11-18T20:39:04.123Z,0.30
2022-11-18T20:41:31.727Z,0.30
2022-11-18T20:43:59.986Z,0.20
2022-11-18T20:46:27.076Z,0.20
2022-11-18T20:48:54.452Z,0.20
2022-11-18T20:51:24.000Z,0.20
2022-11-18T20:53:51.827Z,0.20
2022-11-18T20:56:20.326Z,0.20
2022-11-18T20:58:47.727Z,0.20
2022-11-18T21:01:19.505Z,0.20
2022-11-18T21:03:53.863Z,0.20
2022-11-18T21:06:22.425Z,0.10
2022-11-18T21:08:49.020Z,0.10
2022-11-18T21:11:16.614Z,0.10
2022-11-18T21:14:01.740Z,0.10
2022-11-18T21:16:28.525Z,0.10
2022-11-18T21:18:55.175Z,0.10
2022-11-18T21:21:40.381Z,0.10
2022-11-18T21:24:07.184Z,0.10
2022-11-18T21:26:34.988Z,0.20
2022-11-18T21:29:03.893Z,0.10
2022-11-18T21:31:31.102Z,0.10
2022-11-18T21:33:58.141Z,0.10
2022-11-18T21:36:26.558Z,0.00
2022-11-18T21:38:53.703Z,0.00
2022-11-18T21:41:20.757Z,0.10
2022-11-18T21:46:35.752Z,0.00
2022-11-18T21:49:03.538Z,0.00
2022-11-18T21:51:31.992Z,0.00
2022-11-18T21:53:59.800Z,0.00
2022-11-18T21:56:31.251Z,-0.10
2022-11-18T21:59:02.547Z,0.00
2022-11-18T22:01:31.974Z,0.10
2022-11-18T22:04:01.335Z,0.00
2022-11-18T22:06:29.949Z,-0.10
2022-11-18T22:08:56.761Z,-0.20
2022-11-18T22:11:23.975Z,-0.20
2022-11-18T22:13:51.932Z,-0.30
2022-11-18T22:16:22.181Z,-0.30
2022-11-18T22:18:56.058Z,-0.30
2022-11-18T22:21:26.145Z,-0.30
2022-11-18T22:23:53.389Z,-0.30
2022-11-18T22:26:21.174Z,-0.40
2022-11-18T22:28:52.370Z,-0.30
2022-11-18T22:31:20.945Z,-0.30
2022-11-18T22:33:48.677Z,-0.30
2022-11-18T22:36:17.343Z,-0.30
2022-11-18T22:38:44.874Z,-0.30
2022-11-18T22:41:34.788Z,-0.30
2022-11-18T22:44:07.076Z,-0.30
2022-11-18T22:46:35.962Z,-0.30
2022-11-18T22:49:03.520Z,-0.30
2022-11-18T22:51:30.478Z,-0.40
2022-11-18T22:54:22.901Z,-0.40
2022-11-18T22:56:43.833Z,-0.50
2022-11-18T22:59:12.117Z,-0.50
2022-11-18T23:01:39.060Z,-0.50
2022-11-18T23:04:06.013Z,-0.50
2022-11-18T23:06:32.687Z,-0.50
2022-11-18T23:08:59.347Z,-0.50
2022-11-18T23:11:44.482Z,-0.50
2022-11-18T23:14:11.049Z,-0.60
2022-11-18T23:16:39.853Z,-0.60
2022-11-18T23:19:08.756Z,-0.60
2022-11-18T23:21:35.900Z,-0.70
2022-11-18T23:24:03.237Z,-0.60
2022-11-18T23:26:30.243Z,-0.70
2022-11-18T23:28:56.935Z,-0.70
2022-11-18T23:31:25.812Z,-0.70
2022-11-18T23:33:54.077Z,-0.60
2022-11-18T23:36:21.258Z,-0.60
2022-11-18T23:38:48.223Z,-0.60
2022-11-18T23:41:17.180Z,-0.60
2022-11-18T23:43:48.397Z,-0.60
2022-11-18T23:46:17.387Z,-0.70
2022-11-18T23:48:45.128Z,-0.70
2022-11-18T23:51:16.105Z,-0.70
2022-11-18T23:53:43.352Z,-0.70
2022-11-18T23:56:12.623Z,-0.80
2022-11-18T23:58:40.797Z,-0.70
